sensor_id;sensor_type;location;lat;lon;timestamp;pressure;altitude;pressure_sealevel;temperature;humidity
70027;BME280;57506;50.092;15.804;2023-04-28T00:01:26;99416.56;;;1.46;100.00
70027;BME280;57506;50.092;15.804;2023-04-28T00:03:52;99422.28;;;1.72;100.00
70027;BME280;57506;50.092;15.804;2023-04-28T00:06:19;99429.31;;;1.83;100.00
70027;BME280;57506;50.092;15.804;2023-04-28T00:08:45;99434.38;;;1.86;100.00
70027;BME280;57506;50.092;15.804;2023-04-28T00:11:10;99438.13;;;1.83;100.00
70027;BME280;57506;50.092;15.804;2023-04-28T00:13:36;99404.09;;;1.67;100.00
70027;BME280;57506;50.092;15.804;2023-04-28T00:16:02;99434.00;;;1.69;100.00
70027;BME280;57506;50.092;15.804;2023-04-28T00:18:28;99429.00;;;1.46;100.00
70027;BME280;57506;50.092;15.804;2023-04-28T00:20:54;99403.22;;;1.36;100.00
70027;BME280;57506;50.092;15.804;2023-04-28T00:23:20;99426.31;;;1.66;100.00
70027;BME280;57506;50.092;15.804;2023-04-28T00:25:53;99419.84;;;1.59;100.00
70027;BME280;57506;50.092;15.804;2023-04-28T00:28:19;99413.25;;;1.54;100.00
70027;BME280;57506;50.092;15.804;2023-04-28T00:30:45;99416.34;;;1.59;100.00
70027;BME280;57506;50.092;15.804;2023-04-28T00:33:11;99420.56;;;1.61;100.00
70027;BME280;57506;50.092;15.804;2023-04-28T00:35:36;99436.13;;;1.45;100.00
70027;BME280;57506;50.092;15.804;2023-04-28T00:38:01;99422.75;;;1.15;100.00
70027;BME280;57506;50.092;15.804;2023-04-28T00:40:34;99438.31;;;1.19;100.00
70027;BME280;57506;50.092;15.804;2023-04-28T00:43:01;99430.41;;;1.08;100.00
70027;BME280;57506;50.092;15.804;2023-04-28T00:45:27;99417.56;;;0.92;100.00
70027;BME280;57506;50.092;15.804;2023-04-28T00:47:52;99408.00;;;0.80;100.00
70027;BME280;57506;50.092;15.804;2023-04-28T00:50:19;99413.41;;;0.79;100.00
70027;BME280;57506;50.092;15.804;2023-04-28T00:52:44;99422.78;;;0.83;100.00
70027;BME280;57506;50.092;15.804;2023-04-28T00:55:14;99430.38;;;0.87;100.00
70027;BME280;57506;50.092;15.804;2023-04-28T00:57:40;99430.63;;;0.84;100.00
70027;BME280;57506;50.092;15.804;2023-04-28T01:00:06;99419.69;;;0.78;100.00
70027;BME280;57506;50.092;15.804;2023-04-28T01:02:32;99430.31;;;0.98;100.00
70027;BME280;57506;50.092;15.804;2023-04-28T01:04:58;99413.72;;;1.38;100.00
70027;BME280;57506;50.092;15.804;2023-04-28T01:07:24;99418.81;;;1.51;100.00
70027;BME280;57506;50.092;15.804;2023-04-28T01:09:49;99393.06;;;1.42;100.00
70027;BME280;57506;50.092;15.804;2023-04-28T01:12:15;99399.91;;;1.44;100.00
70027;BME280;57506;50.092;15.804;2023-04-28T01:14:41;99408.72;;;1.45;100.00
70027;BME280;57506;50.092;15.804;2023-04-28T01:17:07;99410.59;;;1.33;100.00
70027;BME280;57506;50.092;15.804;2023-04-28T01:19:32;99408.91;;;1.32;100.00
70027;BME280;57506;50.092;15.804;2023-04-28T01:21:58;99418.75;;;1.41;100.00
70027;BME280;57506;50.092;15.804;2023-04-28T01:24:23;99419.53;;;1.32;100.00
70027;BME280;57506;50.092;15.804;2023-04-28T01:26:49;99399.03;;;1.13;100.00
70027;BME280;57506;50.092;15.804;2023-04-28T01:29:14;99399.03;;;1.13;100.00
70027;BME280;57506;50.092;15.804;2023-04-28T01:31:40;99413.69;;;1.17;100.00
70027;BME280;57506;50.092;15.804;2023-04-28T01:34:06;99408.81;;;1.13;100.00
70027;BME280;57506;50.092;15.804;2023-04-28T01:36:31;99401.69;;;1.13;100.00
70027;BME280;57506;50.092;15.804;2023-04-28T01:38:57;99386.88;;;0.99;100.00
70027;BME280;57506;50.092;15.804;2023-04-28T01:41:23;99384.78;;;0.93;100.00
70027;BME280;57506;50.092;15.804;2023-04-28T01:43:48;99388.56;;;1.00;100.00
70027;BME280;57506;50.092;15.804;2023-04-28T01:46:14;99380.56;;;0.91;100.00
70027;BME280;57506;50.092;15.804;2023-04-28T01:48:39;99374.13;;;1.14;100.00
70027;BME280;57506;50.092;15.804;2023-04-28T01:51:05;99385.00;;;1.32;100.00
70027;BME280;57506;50.092;15.804;2023-04-28T01:53:30;99386.81;;;1.31;100.00
70027;BME280;57506;50.092;15.804;2023-04-28T01:55:56;99362.94;;;1.31;100.00
70027;BME280;57506;50.092;15.804;2023-04-28T01:58:23;99380.00;;;1.29;100.00
70027;BME280;57506;50.092;15.804;2023-04-28T02:00:48;99377.19;;;1.10;100.00
70027;BME280;57506;50.092;15.804;2023-04-28T02:03:14;99377.47;;;1.07;100.00
70027;BME280;57506;50.092;15.804;2023-04-28T02:05:39;99344.38;;;0.90;100.00
70027;BME280;57506;50.092;15.804;2023-04-28T02:08:05;99347.88;;;0.90;100.00
70027;BME280;57506;50.092;15.804;2023-04-28T02:10:30;99357.25;;;0.94;100.00
70027;BME280;57506;50.092;15.804;2023-04-28T02:12:56;99351.13;;;0.94;100.00
70027;BME280;57506;50.092;15.804;2023-04-28T02:15:21;99338.47;;;0.86;100.00
70027;BME280;57506;50.092;15.804;2023-04-28T02:17:47;99349.19;;;0.96;100.00
70027;BME280;57506;50.092;15.804;2023-04-28T02:20:12;99348.06;;;0.98;100.00
70027;BME280;57506;50.092;15.804;2023-04-28T02:22:40;99331.25;;;0.88;100.00
70027;BME280;57506;50.092;15.804;2023-04-28T02:25:07;99327.16;;;0.84;100.00
70027;BME280;57506;50.092;15.804;2023-04-28T02:27:36;99323.66;;;0.84;100.00
70027;BME280;57506;50.092;15.804;2023-04-28T02:30:03;99301.41;;;0.75;100.00
70027;BME280;57506;50.092;15.804;2023-04-28T02:32:28;99326.00;;;0.77;100.00
70027;BME280;57506;50.092;15.804;2023-04-28T02:34:54;99339.41;;;0.96;100.00
70027;BME280;57506;50.092;15.804;2023-04-28T02:37:20;99336.09;;;1.04;100.00
70027;BME280;57506;50.092;15.804;2023-04-28T02:39:45;99334.19;;;1.16;100.00
70027;BME280;57506;50.092;15.804;2023-04-28T02:42:11;99350.13;;;1.16;100.00
70027;BME280;57506;50.092;15.804;2023-04-28T02:44:36;99340.56;;;1.03;100.00
70027;BME280;57506;50.092;15.804;2023-04-28T02:47:02;99357.66;;;1.11;100.00
70027;BME280;57506;50.092;15.804;2023-04-28T02:49:27;99358.03;;;1.06;100.00
70027;BME280;57506;50.092;15.804;2023-04-28T02:51:53;99351.72;;;0.97;100.00
70027;BME280;57506;50.092;15.804;2023-04-28T02:54:18;99351.72;;;0.97;100.00
70027;BME280;57506;50.092;15.804;2023-04-28T02:56:54;99367.34;;;1.00;100.00
70027;BME280;57506;50.092;15.804;2023-04-28T02:59:21;99344.25;;;0.91;100.00
70027;BME280;57506;50.092;15.804;2023-04-28T03:01:47;99353.91;;;1.13;100.00
70027;BME280;57506;50.092;15.804;2023-04-28T03:04:13;99332.69;;;1.13;100.00
70027;BME280;57506;50.092;15.804;2023-04-28T03:06:39;99363.34;;;1.27;100.00
70027;BME280;57506;50.092;15.804;2023-04-28T03:09:06;99343.13;;;1.15;100.00
70027;BME280;57506;50.092;15.804;2023-04-28T03:11:34;99363.25;;;1.17;100.00
70027;BME280;57506;50.092;15.804;2023-04-28T03:13:59;99348.25;;;1.07;100.00
70027;BME280;57506;50.092;15.804;2023-04-28T03:16:25;99342.44;;;1.13;100.00
70027;BME280;57506;50.092;15.804;2023-04-28T03:18:51;99339.75;;;1.64;100.00
70027;BME280;57506;50.092;15.804;2023-04-28T03:21:16;99350.28;;;1.75;100.00
70027;BME280;57506;50.092;15.804;2023-04-28T03:23:42;99340.28;;;1.98;100.00
70027;BME280;57506;50.092;15.804;2023-04-28T03:26:07;99337.69;;;2.17;100.00
70027;BME280;57506;50.092;15.804;2023-04-28T03:28:33;99350.28;;;2.25;100.00
70027;BME280;57506;50.092;15.804;2023-04-28T03:30:58;99350.44;;;2.23;100.00
70027;BME280;57506;50.092;15.804;2023-04-28T03:33:24;99363.91;;;2.41;100.00
70027;BME280;57506;50.092;15.804;2023-04-28T03:35:49;99349.91;;;2.39;100.00
70027;BME280;57506;50.092;15.804;2023-04-28T03:38:15;99357.88;;;2.49;100.00
70027;BME280;57506;50.092;15.804;2023-04-28T03:40:41;99372.19;;;2.57;100.00
70027;BME280;57506;50.092;15.804;2023-04-28T03:43:06;99372.44;;;2.54;100.00
70027;BME280;57506;50.092;15.804;2023-04-28T03:45:32;99337.72;;;2.36;100.00
70027;BME280;57506;50.092;15.804;2023-04-28T03:47:57;99354.53;;;2.56;100.00
70027;BME280;57506;50.092;15.804;2023-04-28T03:50:23;99366.56;;;2.70;100.00
70027;BME280;57506;50.092;15.804;2023-04-28T03:52:48;99353.97;;;2.72;100.00
70027;BME280;57506;50.092;15.804;2023-04-28T03:55:17;99365.72;;;2.98;100.00
70027;BME280;57506;50.092;15.804;2023-04-28T03:57:42;99358.16;;;3.03;100.00
70027;BME280;57506;50.092;15.804;2023-04-28T04:00:08;99360.13;;;3.01;100.00
70027;BME280;57506;50.092;15.804;2023-04-28T04:02:34;99331.41;;;2.95;100.00
70027;BME280;57506;50.092;15.804;2023-04-28T04:04:59;99357.00;;;3.15;100.00
70027;BME280;57506;50.092;15.804;2023-04-28T04:07:25;99336.59;;;3.06;100.00
70027;BME280;57506;50.092;15.804;2023-04-28T04:09:51;99359.66;;;3.25;100.00
70027;BME280;57506;50.092;15.804;2023-04-28T04:12:16;99354.88;;;3.29;100.00
70027;BME280;57506;50.092;15.804;2023-04-28T04:14:42;99356.41;;;3.31;100.00
70027;BME280;57506;50.092;15.804;2023-04-28T04:17:08;99335.38;;;3.28;100.00
70027;BME280;57506;50.092;15.804;2023-04-28T04:19:33;99322.53;;;3.24;100.00
70027;BME280;57506;50.092;15.804;2023-04-28T04:21:59;99312.72;;;3.24;100.00
70027;BME280;57506;50.092;15.804;2023-04-28T04:24:25;99344.88;;;3.50;100.00
70027;BME280;57506;50.092;15.804;2023-04-28T04:26:50;99340.53;;;3.49;100.00
70027;BME280;57506;50.092;15.804;2023-04-28T04:29:16;99350.00;;;3.61;100.00
70027;BME280;57506;50.092;15.804;2023-04-28T04:31:41;99340.66;;;3.57;100.00
70027;BME280;57506;50.092;15.804;2023-04-28T04:34:10;99357.00;;;3.72;100.00
70027;BME280;57506;50.092;15.804;2023-04-28T04:36:35;99354.56;;;3.78;100.00
70027;BME280;57506;50.092;15.804;2023-04-28T04:39:01;99319.03;;;3.60;100.00
70027;BME280;57506;50.092;15.804;2023-04-28T04:41:27;99361.09;;;3.94;100.00
70027;BME280;57506;50.092;15.804;2023-04-28T04:43:52;99363.28;;;4.08;100.00
70027;BME280;57506;50.092;15.804;2023-04-28T04:46:18;99343.09;;;4.05;100.00
70027;BME280;57506;50.092;15.804;2023-04-28T04:48:43;99337.84;;;4.13;100.00
70027;BME280;57506;50.092;15.804;2023-04-28T04:51:09;99344.13;;;4.22;100.00
70027;BME280;57506;50.092;15.804;2023-04-28T04:53:35;99343.28;;;4.39;100.00
70027;BME280;57506;50.092;15.804;2023-04-28T04:56:01;99360.69;;;4.43;100.00
70027;BME280;57506;50.092;15.804;2023-04-28T04:58:26;99339.34;;;4.43;100.00
70027;BME280;57506;50.092;15.804;2023-04-28T05:00:52;99332.56;;;4.49;100.00
70027;BME280;57506;50.092;15.804;2023-04-28T05:03:19;99336.47;;;4.54;100.00
70027;BME280;57506;50.092;15.804;2023-04-28T05:05:44;99339.19;;;4.63;100.00
70027;BME280;57506;50.092;15.804;2023-04-28T05:08:10;99342.63;;;4.73;100.00
70027;BME280;57506;50.092;15.804;2023-04-28T05:10:36;99325.59;;;4.74;100.00
70027;BME280;57506;50.092;15.804;2023-04-28T05:13:02;99336.56;;;4.88;100.00
70027;BME280;57506;50.092;15.804;2023-04-28T05:15:28;99342.44;;;5.10;100.00
70027;BME280;57506;50.092;15.804;2023-04-28T05:17:53;99326.69;;;5.24;100.00
70027;BME280;57506;50.092;15.804;2023-04-28T05:20:19;99297.28;;;5.24;100.00
70027;BME280;57506;50.092;15.804;2023-04-28T05:22:44;99319.91;;;5.64;100.00
70027;BME280;57506;50.092;15.804;2023-04-28T05:25:10;99249.59;;;5.38;100.00
70027;BME280;57506;50.092;15.804;2023-04-28T05:27:35;99306.72;;;6.05;100.00
70027;BME280;57506;50.092;15.804;2023-04-28T05:30:08;99299.94;;;6.26;100.00
70027;BME280;57506;50.092;15.804;2023-04-28T05:32:35;99331.97;;;6.60;100.00
70027;BME280;57506;50.092;15.804;2023-04-28T05:35:01;99340.69;;;6.87;100.00
70027;BME280;57506;50.092;15.804;2023-04-28T05:37:27;99310.91;;;6.98;99.49
70027;BME280;57506;50.092;15.804;2023-04-28T05:39:52;99332.97;;;7.32;98.04
70027;BME280;57506;50.092;15.804;2023-04-28T05:42:18;99315.16;;;7.56;96.04
70027;BME280;57506;50.092;15.804;2023-04-28T05:44:43;99318.44;;;7.82;93.95
70027;BME280;57506;50.092;15.804;2023-04-28T05:47:09;99305.91;;;7.75;93.71
70027;BME280;57506;50.092;15.804;2023-04-28T05:49:34;99318.31;;;7.67;92.61
70027;BME280;57506;50.092;15.804;2023-04-28T05:52:00;99299.25;;;7.62;92.23
70027;BME280;57506;50.092;15.804;2023-04-28T05:54:25;99318.75;;;7.95;91.83
70027;BME280;57506;50.092;15.804;2023-04-28T05:56:52;99292.59;;;7.81;92.90
70027;BME280;57506;50.092;15.804;2023-04-28T05:59:17;99297.28;;;7.87;94.33
70027;BME280;57506;50.092;15.804;2023-04-28T06:01:43;99300.63;;;7.89;95.24
70027;BME280;57506;50.092;15.804;2023-04-28T06:04:09;99280.06;;;7.73;95.52
70027;BME280;57506;50.092;15.804;2023-04-28T06:06:34;99297.47;;;7.86;94.61
70027;BME280;57506;50.092;15.804;2023-04-28T06:09:01;99302.16;;;7.92;93.33
70027;BME280;57506;50.092;15.804;2023-04-28T06:11:26;99295.44;;;7.88;93.76
70027;BME280;57506;50.092;15.804;2023-04-28T06:13:52;99287.84;;;7.99;93.42
70027;BME280;57506;50.092;15.804;2023-04-28T06:16:17;99290.25;;;8.17;92.27
70027;BME280;57506;50.092;15.804;2023-04-28T06:18:43;99263.78;;;8.14;93.07
70027;BME280;57506;50.092;15.804;2023-04-28T06:21:09;99284.38;;;8.53;91.95
70027;BME280;57506;50.092;15.804;2023-04-28T06:23:34;99293.28;;;8.76;89.80
70027;BME280;57506;50.092;15.804;2023-04-28T06:26:00;99281.84;;;8.97;89.88
70027;BME280;57506;50.092;15.804;2023-04-28T06:28:26;99290.34;;;9.23;90.03
70027;BME280;57506;50.092;15.804;2023-04-28T06:30:51;99280.44;;;9.38;86.73
70027;BME280;57506;50.092;15.804;2023-04-28T06:33:16;99298.81;;;9.79;86.34
70027;BME280;57506;50.092;15.804;2023-04-28T06:35:42;99277.09;;;9.95;85.19
70027;BME280;57506;50.092;15.804;2023-04-28T06:38:08;99263.16;;;10.21;86.88
70027;BME280;57506;50.092;15.804;2023-04-28T06:40:33;99282.25;;;10.26;82.09
70027;BME280;57506;50.092;15.804;2023-04-28T06:42:59;99282.25;;;10.62;78.84
70027;BME280;57506;50.092;15.804;2023-04-28T06:45:24;99263.75;;;10.80;79.69
70027;BME280;57506;50.092;15.804;2023-04-28T06:47:50;99277.22;;;11.02;78.45
70027;BME280;57506;50.092;15.804;2023-04-28T06:50:16;99266.81;;;10.99;80.96
70027;BME280;57506;50.092;15.804;2023-04-28T06:52:42;99276.44;;;11.08;79.93
70027;BME280;57506;50.092;15.804;2023-04-28T06:55:08;99251.66;;;11.19;80.94
70027;BME280;57506;50.092;15.804;2023-04-28T06:57:34;99274.91;;;11.54;76.55
70027;BME280;57506;50.092;15.804;2023-04-28T06:59:59;99255.97;;;11.76;76.99
70027;BME280;57506;50.092;15.804;2023-04-28T07:02:25;99271.63;;;11.94;74.84
70027;BME280;57506;50.092;15.804;2023-04-28T07:04:51;99260.47;;;12.10;73.24
70027;BME280;57506;50.092;15.804;2023-04-28T07:07:17;99262.44;;;12.29;70.22
70027;BME280;57506;50.092;15.804;2023-04-28T07:09:42;99235.13;;;12.11;72.32
70027;BME280;57506;50.092;15.804;2023-04-28T07:12:08;99199.78;;;11.99;73.58
70027;BME280;57506;50.092;15.804;2023-04-28T07:14:33;99238.09;;;12.29;72.30
70027;BME280;57506;50.092;15.804;2023-04-28T07:16:58;99242.91;;;12.40;72.21
70027;BME280;57506;50.092;15.804;2023-04-28T07:19:24;99246.69;;;12.46;69.67
70027;BME280;57506;50.092;15.804;2023-04-28T07:21:49;99241.00;;;12.27;67.61
70027;BME280;57506;50.092;15.804;2023-04-28T07:24:15;99246.66;;;12.39;72.04
70027;BME280;57506;50.092;15.804;2023-04-28T07:26:41;99238.19;;;12.62;68.46
70027;BME280;57506;50.092;15.804;2023-04-28T07:29:06;99239.00;;;12.56;67.97
70027;BME280;57506;50.092;15.804;2023-04-28T07:31:33;99255.88;;;12.65;69.09
70027;BME280;57506;50.092;15.804;2023-04-28T07:33:59;99240.69;;;12.90;67.98
70027;BME280;57506;50.092;15.804;2023-04-28T07:36:24;99218.84;;;13.18;69.47
70027;BME280;57506;50.092;15.804;2023-04-28T07:38:50;99237.16;;;13.16;66.27
70027;BME280;57506;50.092;15.804;2023-04-28T07:41:16;99220.72;;;13.11;64.94
70027;BME280;57506;50.092;15.804;2023-04-28T07:43:41;99244.88;;;13.19;68.73
70027;BME280;57506;50.092;15.804;2023-04-28T07:46:07;99243.59;;;13.41;69.38
70027;BME280;57506;50.092;15.804;2023-04-28T07:48:33;99233.00;;;13.46;68.02
70027;BME280;57506;50.092;15.804;2023-04-28T07:50:59;99214.22;;;13.51;67.04
70027;BME280;57506;50.092;15.804;2023-04-28T07:53:25;99222.34;;;13.51;65.20
70027;BME280;57506;50.092;15.804;2023-04-28T07:55:51;99232.91;;;13.73;68.12
70027;BME280;57506;50.092;15.804;2023-04-28T07:58:16;99220.63;;;13.70;68.65
70027;BME280;57506;50.092;15.804;2023-04-28T08:00:42;99223.69;;;13.87;67.96
70027;BME280;57506;50.092;15.804;2023-04-28T08:03:07;99193.22;;;13.98;64.92
70027;BME280;57506;50.092;15.804;2023-04-28T08:05:33;99191.88;;;13.76;63.63
70027;BME280;57506;50.092;15.804;2023-04-28T08:07:58;99206.44;;;13.75;64.03
70027;BME280;57506;50.092;15.804;2023-04-28T08:10:24;99216.75;;;13.97;67.10
70027;BME280;57506;50.092;15.804;2023-04-28T08:12:51;99202.97;;;14.06;63.43
70027;BME280;57506;50.092;15.804;2023-04-28T08:15:16;99201.63;;;14.28;62.83
70027;BME280;57506;50.092;15.804;2023-04-28T08:17:42;99194.81;;;14.50;63.80
70027;BME280;57506;50.092;15.804;2023-04-28T08:20:08;99190.13;;;14.64;65.64
70027;BME280;57506;50.092;15.804;2023-04-28T08:22:33;99188.31;;;14.83;62.34
70027;BME280;57506;50.092;15.804;2023-04-28T08:24:59;99196.66;;;14.81;63.50
70027;BME280;57506;50.092;15.804;2023-04-28T08:27:25;99184.13;;;14.87;61.94
70027;BME280;57506;50.092;15.804;2023-04-28T08:29:51;99179.44;;;15.19;59.52
70027;BME280;57506;50.092;15.804;2023-04-28T08:32:17;99171.81;;;15.27;58.19
70027;BME280;57506;50.092;15.804;2023-04-28T08:34:42;99178.38;;;15.20;56.76
70027;BME280;57506;50.092;15.804;2023-04-28T08:37:08;99177.56;;;15.19;59.08
70027;BME280;57506;50.092;15.804;2023-04-28T08:39:34;99170.94;;;15.33;56.60
70027;BME280;57506;50.092;15.804;2023-04-28T08:42:03;99164.69;;;15.51;55.81
70027;BME280;57506;50.092;15.804;2023-04-28T08:44:36;99179.97;;;15.46;55.41
70027;BME280;57506;50.092;15.804;2023-04-28T08:47:08;99170.72;;;15.53;53.64
70027;BME280;57506;50.092;15.804;2023-04-28T08:49:36;99175.13;;;15.72;53.34
70027;BME280;57506;50.092;15.804;2023-04-28T08:52:08;99169.81;;;15.78;53.51
70027;BME280;57506;50.092;15.804;2023-04-28T08:54:35;99154.22;;;15.73;53.75
70027;BME280;57506;50.092;15.804;2023-04-28T08:57:02;99149.97;;;15.77;54.35
70027;BME280;57506;50.092;15.804;2023-04-28T08:59:29;99152.28;;;15.92;54.14
70027;BME280;57506;50.092;15.804;2023-04-28T09:01:55;99158.09;;;15.95;52.89
70027;BME280;57506;50.092;15.804;2023-04-28T09:04:21;99146.59;;;16.12;53.94
70027;BME280;57506;50.092;15.804;2023-04-28T09:06:47;99148.94;;;16.08;55.53
70027;BME280;57506;50.092;15.804;2023-04-28T09:09:29;99135.47;;;16.13;55.32
70027;BME280;57506;50.092;15.804;2023-04-28T09:12:00;99142.78;;;16.42;52.05
70027;BME280;57506;50.092;15.804;2023-04-28T09:14:31;99111.03;;;16.25;51.02
70027;BME280;57506;50.092;15.804;2023-04-28T09:16:57;99143.38;;;16.44;52.35
70027;BME280;57506;50.092;15.804;2023-04-28T09:19:23;99142.69;;;16.49;52.81
70027;BME280;57506;50.092;15.804;2023-04-28T09:21:54;99119.50;;;16.47;52.68
70027;BME280;57506;50.092;15.804;2023-04-28T09:26:53;99137.06;;;16.74;52.87
70027;BME280;57506;50.092;15.804;2023-04-28T09:29:18;99124.94;;;16.58;51.74
70027;BME280;57506;50.092;15.804;2023-04-28T09:31:44;99109.69;;;16.45;51.96
70027;BME280;57506;50.092;15.804;2023-04-28T09:34:09;99125.41;;;16.43;52.72
70027;BME280;57506;50.092;15.804;2023-04-28T09:36:36;99115.91;;;16.64;52.95
70027;BME280;57506;50.092;15.804;2023-04-28T09:39:02;99126.09;;;17.04;50.55
70027;BME280;57506;50.092;15.804;2023-04-28T09:41:35;99108.78;;;17.22;50.03
70027;BME280;57506;50.092;15.804;2023-04-28T09:44:15;99111.94;;;17.42;50.43
70027;BME280;57506;50.092;15.804;2023-04-28T09:46:42;99104.84;;;17.41;49.99
70027;BME280;57506;50.092;15.804;2023-04-28T09:49:09;99105.00;;;17.23;49.95
70027;BME280;57506;50.092;15.804;2023-04-28T09:51:35;99104.53;;;17.14;50.12
70027;BME280;57506;50.092;15.804;2023-04-28T09:54:01;99106.16;;;17.38;48.02
70027;BME280;57506;50.092;15.804;2023-04-28T09:56:28;99086.44;;;17.20;49.94
70027;BME280;57506;50.092;15.804;2023-04-28T09:58:56;99091.72;;;17.26;50.11
70027;BME280;57506;50.092;15.804;2023-04-28T10:01:24;99101.78;;;17.26;50.71
70027;BME280;57506;50.092;15.804;2023-04-28T10:03:51;99085.47;;;17.14;49.71
70027;BME280;57506;50.092;15.804;2023-04-28T10:06:18;99079.66;;;17.10;48.59
70027;BME280;57506;50.092;15.804;2023-04-28T10:08:43;99063.25;;;16.70;50.68
70027;BME280;57506;50.092;15.804;2023-04-28T10:11:15;99084.91;;;16.77;49.98
70027;BME280;57506;50.092;15.804;2023-04-28T10:13:42;99088.44;;;16.66;51.08
70027;BME280;57506;50.092;15.804;2023-04-28T10:16:09;99075.66;;;16.78;51.73
70027;BME280;57506;50.092;15.804;2023-04-28T10:18:36;99076.84;;;17.17;52.36
70027;BME280;57506;50.092;15.804;2023-04-28T10:21:03;99079.53;;;17.29;51.15
70027;BME280;57506;50.092;15.804;2023-04-28T10:26:18;99065.31;;;17.27;49.62
70027;BME280;57506;50.092;15.804;2023-04-28T10:28:48;99073.38;;;17.22;49.32
70027;BME280;57506;50.092;15.804;2023-04-28T10:31:16;99057.44;;;17.02;50.70
70027;BME280;57506;50.092;15.804;2023-04-28T10:33:43;99064.03;;;17.18;50.46
70027;BME280;57506;50.092;15.804;2023-04-28T10:36:09;99044.63;;;17.14;47.19
70027;BME280;57506;50.092;15.804;2023-04-28T10:39:07;99061.16;;;17.36;50.06
70027;BME280;57506;50.092;15.804;2023-04-28T10:41:34;99040.69;;;17.62;49.54
70027;BME280;57506;50.092;15.804;2023-04-28T10:43:59;99019.03;;;17.55;47.91
70027;BME280;57506;50.092;15.804;2023-04-28T10:46:25;99033.47;;;17.56;47.80
70027;BME280;57506;50.092;15.804;2023-04-28T10:48:51;99027.72;;;17.52;46.56
70027;BME280;57506;50.092;15.804;2023-04-28T10:58:38;99017.22;;;18.34;49.90
70027;BME280;57506;50.092;15.804;2023-04-28T11:08:48;99004.47;;;18.23;48.48
70027;BME280;57506;50.092;15.804;2023-04-28T11:11:15;98999.00;;;18.23;46.85
70027;BME280;57506;50.092;15.804;2023-04-28T11:13:41;98996.28;;;18.40;48.18
70027;BME280;57506;50.092;15.804;2023-04-28T11:16:07;99001.94;;;18.33;49.25
70027;BME280;57506;50.092;15.804;2023-04-28T11:21:22;99006.47;;;18.44;50.21
70027;BME280;57506;50.092;15.804;2023-04-28T11:23:48;98996.63;;;18.43;48.59
70027;BME280;57506;50.092;15.804;2023-04-28T11:26:14;98981.56;;;18.41;47.78
70027;BME280;57506;50.092;15.804;2023-04-28T11:28:48;99002.91;;;18.10;48.64
70027;BME280;57506;50.092;15.804;2023-04-28T11:31:15;98995.78;;;18.26;47.93
70027;BME280;57506;50.092;15.804;2023-04-28T11:33:52;98984.44;;;18.51;48.02
70027;BME280;57506;50.092;15.804;2023-04-28T11:36:29;98999.25;;;18.72;46.39
70027;BME280;57506;50.092;15.804;2023-04-28T11:38:57;99005.28;;;18.74;45.60
70027;BME280;57506;50.092;15.804;2023-04-28T11:41:23;99006.09;;;18.58;46.30
70027;BME280;57506;50.092;15.804;2023-04-28T11:43:48;98986.78;;;18.59;47.88
70027;BME280;57506;50.092;15.804;2023-04-28T11:46:18;99000.66;;;18.58;47.93
70027;BME280;57506;50.092;15.804;2023-04-28T11:48:45;99001.94;;;18.88;47.33
70027;BME280;57506;50.092;15.804;2023-04-28T11:51:29;98999.06;;;19.00;44.36
70027;BME280;57506;50.092;15.804;2023-04-28T11:53:56;99009.38;;;19.37;45.39
70027;BME280;57506;50.092;15.804;2023-04-28T11:56:22;98994.97;;;19.19;43.21
70027;BME280;57506;50.092;15.804;2023-04-28T12:01:30;98996.41;;;19.49;43.99
70027;BME280;57506;50.092;15.804;2023-04-28T12:03:56;98995.34;;;19.28;45.33
70027;BME280;57506;50.092;15.804;2023-04-28T12:06:22;98990.69;;;18.85;45.98
70027;BME280;57506;50.092;15.804;2023-04-28T12:08:48;98980.50;;;18.59;45.54
70027;BME280;57506;50.092;15.804;2023-04-28T12:11:14;98993.16;;;18.48;45.60
70027;BME280;57506;50.092;15.804;2023-04-28T12:13:42;98975.88;;;18.26;46.44
70027;BME280;57506;50.092;15.804;2023-04-28T12:16:07;98997.69;;;18.26;46.05
70027;BME280;57506;50.092;15.804;2023-04-28T12:18:34;98989.34;;;17.99;46.80
70027;BME280;57506;50.092;15.804;2023-04-28T12:21:00;98985.03;;;18.03;45.85
70027;BME280;57506;50.092;15.804;2023-04-28T12:23:32;98982.16;;;17.93;48.50
70027;BME280;57506;50.092;15.804;2023-04-28T12:25:59;98982.25;;;17.98;47.81
70027;BME280;57506;50.092;15.804;2023-04-28T12:28:38;98988.78;;;18.13;48.12
70027;BME280;57506;50.092;15.804;2023-04-28T12:31:07;98992.38;;;18.19;47.81
70027;BME280;57506;50.092;15.804;2023-04-28T12:33:34;98982.00;;;17.99;47.62
70027;BME280;57506;50.092;15.804;2023-04-28T12:36:04;98972.75;;;18.00;47.18
70027;BME280;57506;50.092;15.804;2023-04-28T12:38:32;98986.78;;;18.09;46.80
70027;BME280;57506;50.092;15.804;2023-04-28T12:40:58;98991.16;;;18.10;47.83
70027;BME280;57506;50.092;15.804;2023-04-28T12:43:24;98981.47;;;18.19;46.84
70027;BME280;57506;50.092;15.804;2023-04-28T12:45:52;98987.75;;;18.03;45.55
70027;BME280;57506;50.092;15.804;2023-04-28T12:48:19;98988.44;;;18.10;44.39
70027;BME280;57506;50.092;15.804;2023-04-28T12:50:45;98972.91;;;18.10;45.03
70027;BME280;57506;50.092;15.804;2023-04-28T12:53:11;98983.66;;;18.17;47.46
70027;BME280;57506;50.092;15.804;2023-04-28T12:55:36;98990.66;;;17.96;47.75
70027;BME280;57506;50.092;15.804;2023-04-28T12:58:05;98973.28;;;17.57;47.76
70027;BME280;57506;50.092;15.804;2023-04-28T13:00:31;98978.41;;;17.65;46.66
70027;BME280;57506;50.092;15.804;2023-04-28T13:02:57;98977.50;;;17.93;49.63
70027;BME280;57506;50.092;15.804;2023-04-28T13:05:23;98965.78;;;17.93;47.57
70027;BME280;57506;50.092;15.804;2023-04-28T13:07:48;98961.66;;;17.90;45.52
70027;BME280;57506;50.092;15.804;2023-04-28T13:10:15;98975.47;;;18.00;47.05
70027;BME280;57506;50.092;15.804;2023-04-28T13:12:42;98942.25;;;17.58;48.37